sensor_id;sensor_type;location;lat;lon;timestamp;temperature;humidity
12622;DHT22;6376;48.182;-1.644;2024-01-15T00:01:43;8.60;75.80
12622;DHT22;6376;48.182;-1.644;2024-01-15T00:04:12;8.60;75.90
12622;DHT22;6376;48.182;-1.644;2024-01-15T00:06:38;8.60;75.80
12622;DHT22;6376;48.182;-1.644;2024-01-15T00:09:03;8.60;75.80
12622;DHT22;6376;48.182;-1.644;2024-01-15T00:11:29;8.60;75.90
12622;DHT22;6376;48.182;-1.644;2024-01-15T00:13:55;8.60;75.90
12622;DHT22;6376;48.182;-1.644;2024-01-15T00:16:20;8.60;76.00
12622;DHT22;6376;48.182;-1.644;2024-01-15T00:18:46;8.60;76.00
12622;DHT22;6376;48.182;-1.644;2024-01-15T00:21:11;8.60;76.00
12622;DHT22;6376;48.182;-1.644;2024-01-15T00:23:42;8.60;76.00
12622;DHT22;6376;48.182;-1.644;2024-01-15T00:26:08;8.60;76.00
12622;DHT22;6376;48.182;-1.644;2024-01-15T00:28:34;8.60;75.90
12622;DHT22;6376;48.182;-1.644;2024-01-15T00:30:59;8.60;75.90
12622;DHT22;6376;48.182;-1.644;2024-01-15T00:33:25;8.60;75.90
12622;DHT22;6376;48.182;-1.644;2024-01-15T00:35:51;8.60;75.90
12622;DHT22;6376;48.182;-1.644;2024-01-15T00:38:16;8.60;75.90
12622;DHT22;6376;48.182;-1.644;2024-01-15T00:40:42;8.60;75.90
12622;DHT22;6376;48.182;-1.644;2024-01-15T00:43:08;8.60;75.80
12622;DHT22;6376;48.182;-1.644;2024-01-15T00:45:33;9.30;76.20
12622;DHT22;6376;48.182;-1.644;2024-01-15T00:47:59;8.60;75.80
12622;DHT22;6376;48.182;-1.644;2024-01-15T00:50:26;8.60;75.90
12622;DHT22;6376;48.182;-1.644;2024-01-15T00:52:52;8.60;75.80
12622;DHT22;6376;48.182;-1.644;2024-01-15T00:55:17;8.60;75.90
12622;DHT22;6376;48.182;-1.644;2024-01-15T00:57:43;8.60;75.80
12622;DHT22;6376;48.182;-1.644;2024-01-15T01:00:09;8.60;76.70
12622;DHT22;6376;48.182;-1.644;2024-01-15T01:02:35;8.60;76.00
12622;DHT22;6376;48.182;-1.644;2024-01-15T01:05:00;8.60;76.00
12622;DHT22;6376;48.182;-1.644;2024-01-15T01:07:26;8.60;75.90
12622;DHT22;6376;48.182;-1.644;2024-01-15T01:09:51;8.60;75.90
12622;DHT22;6376;48.182;-1.644;2024-01-15T01:12:17;8.60;76.00
12622;DHT22;6376;48.182;-1.644;2024-01-15T01:14:43;8.60;76.00
12622;DHT22;6376;48.182;-1.644;2024-01-15T01:17:09;8.60;76.00
12622;DHT22;6376;48.182;-1.644;2024-01-15T01:19:34;8.60;75.90
12622;DHT22;6376;48.182;-1.644;2024-01-15T01:22:00;8.60;75.90
12622;DHT22;6376;48.182;-1.644;2024-01-15T01:24:25;8.60;76.00
12622;DHT22;6376;48.182;-1.644;2024-01-15T01:26:51;8.60;76.00
12622;DHT22;6376;48.182;-1.644;2024-01-15T01:29:17;8.60;76.00
12622;DHT22;6376;48.182;-1.644;2024-01-15T01:31:44;8.60;76.10
12622;DHT22;6376;48.182;-1.644;2024-01-15T01:34:10;8.60;76.10
12622;DHT22;6376;48.182;-1.644;2024-01-15T01:36:36;8.60;76.10
12622;DHT22;6376;48.182;-1.644;2024-01-15T01:39:01;8.60;76.00
12622;DHT22;6376;48.182;-1.644;2024-01-15T01:41:27;8.60;76.10
12622;DHT22;6376;48.182;-1.644;2024-01-15T01:43:53;8.60;76.10
12622;DHT22;6376;48.182;-1.644;2024-01-15T01:46:18;8.60;76.10
12622;DHT22;6376;48.182;-1.644;2024-01-15T01:48:44;8.60;76.10
12622;DHT22;6376;48.182;-1.644;2024-01-15T01:51:10;8.60;76.10
12622;DHT22;6376;48.182;-1.644;2024-01-15T01:53:37;8.60;76.10
12622;DHT22;6376;48.182;-1.644;2024-01-15T01:56:04;8.60;76.10
12622;DHT22;6376;48.182;-1.644;2024-01-15T01:58:31;8.60;76.30
12622;DHT22;6376;48.182;-1.644;2024-01-15T02:00:58;8.60;76.20
12622;DHT22;6376;48.182;-1.644;2024-01-15T02:03:25;8.60;76.20
12622;DHT22;6376;48.182;-1.644;2024-01-15T02:05:52;8.60;76.20
12622;DHT22;6376;48.182;-1.644;2024-01-15T02:08:19;8.60;76.20
12622;DHT22;6376;48.182;-1.644;2024-01-15T02:10:44;8.60;76.10
12622;DHT22;6376;48.182;-1.644;2024-01-15T02:13:10;8.60;76.00
12622;DHT22;6376;48.182;-1.644;2024-01-15T02:15:36;8.60;76.10
12622;DHT22;6376;48.182;-1.644;2024-01-15T02:18:04;8.60;76.10
12622;DHT22;6376;48.182;-1.644;2024-01-15T02:20:30;8.60;76.10
12622;DHT22;6376;48.182;-1.644;2024-01-15T02:23:13;8.60;76.10
12622;DHT22;6376;48.182;-1.644;2024-01-15T02:25:41;8.60;76.10
12622;DHT22;6376;48.182;-1.644;2024-01-15T02:28:10;8.60;76.10
12622;DHT22;6376;48.182;-1.644;2024-01-15T02:30:40;8.60;76.20
12622;DHT22;6376;48.182;-1.644;2024-01-15T02:33:07;8.60;76.20
12622;DHT22;6376;48.182;-1.644;2024-01-15T02:35:33;8.60;76.10
12622;DHT22;6376;48.182;-1.644;2024-01-15T02:37:59;8.60;76.10
12622;DHT22;6376;48.182;-1.644;2024-01-15T02:40:24;8.60;76.00
12622;DHT22;6376;48.182;-1.644;2024-01-15T02:42:51;8.60;76.20
12622;DHT22;6376;48.182;-1.644;2024-01-15T02:45:17;8.60;76.30
12622;DHT22;6376;48.182;-1.644;2024-01-15T02:47:42;8.60;76.30
12622;DHT22;6376;48.182;-1.644;2024-01-15T02:50:08;8.60;76.40
12622;DHT22;6376;48.182;-1.644;2024-01-15T02:52:34;8.60;76.20
12622;DHT22;6376;48.182;-1.644;2024-01-15T02:54:59;8.60;76.30
12622;DHT22;6376;48.182;-1.644;2024-01-15T02:57:25;8.60;76.30
12622;DHT22;6376;48.182;-1.644;2024-01-15T02:59:51;8.60;76.30
12622;DHT22;6376;48.182;-1.644;2024-01-15T03:02:16;8.60;76.30
12622;DHT22;6376;48.182;-1.644;2024-01-15T03:04:45;8.60;76.30
12622;DHT22;6376;48.182;-1.644;2024-01-15T03:07:11;8.60;76.40
12622;DHT22;6376;48.182;-1.644;2024-01-15T03:09:37;8.60;76.40
12622;DHT22;6376;48.182;-1.644;2024-01-15T03:12:03;8.60;76.50
12622;DHT22;6376;48.182;-1.644;2024-01-15T03:14:29;8.60;76.40
12622;DHT22;6376;48.182;-1.644;2024-01-15T03:16:54;8.60;76.40
12622;DHT22;6376;48.182;-1.644;2024-01-15T03:19:20;8.60;76.40
12622;DHT22;6376;48.182;-1.644;2024-01-15T03:21:46;8.60;76.30
12622;DHT22;6376;48.182;-1.644;2024-01-15T03:24:11;8.60;76.50
12622;DHT22;6376;48.182;-1.644;2024-01-15T03:26:37;8.60;77.20
12622;DHT22;6376;48.182;-1.644;2024-01-15T03:29:03;8.60;76.50
12622;DHT22;6376;48.182;-1.644;2024-01-15T03:31:28;8.60;76.50
12622;DHT22;6376;48.182;-1.644;2024-01-15T03:33:54;8.60;76.50
12622;DHT22;6376;48.182;-1.644;2024-01-15T03:36:19;8.60;76.40
12622;DHT22;6376;48.182;-1.644;2024-01-15T03:38:45;8.60;76.40
12622;DHT22;6376;48.182;-1.644;2024-01-15T03:41:11;8.60;76.50
12622;DHT22;6376;48.182;-1.644;2024-01-15T03:43:36;8.60;76.50
12622;DHT22;6376;48.182;-1.644;2024-01-15T03:46:02;8.60;76.60
12622;DHT22;6376;48.182;-1.644;2024-01-15T03:48:28;8.60;76.60
12622;DHT22;6376;48.182;-1.644;2024-01-15T03:50:53;8.60;76.60
12622;DHT22;6376;48.182;-1.644;2024-01-15T03:53:19;8.60;76.50
12622;DHT22;6376;48.182;-1.644;2024-01-15T03:55:45;8.60;76.60
12622;DHT22;6376;48.182;-1.644;2024-01-15T03:58:10;8.60;76.40
12622;DHT22;6376;48.182;-1.644;2024-01-15T04:00:36;8.60;76.40
12622;DHT22;6376;48.182;-1.644;2024-01-15T04:03:02;8.60;76.50
12622;DHT22;6376;48.182;-1.644;2024-01-15T04:05:27;8.60;76.50
12622;DHT22;6376;48.182;-1.644;2024-01-15T04:07:53;8.60;76.60
12622;DHT22;6376;48.182;-1.644;2024-01-15T04:10:19;8.60;76.60
12622;DHT22;6376;48.182;-1.644;2024-01-15T04:12:44;8.60;76.60
12622;DHT22;6376;48.182;-1.644;2024-01-15T04:15:13;8.60;76.60
12622;DHT22;6376;48.182;-1.644;2024-01-15T04:17:39;8.60;76.50
12622;DHT22;6376;48.182;-1.644;2024-01-15T04:20:05;8.60;76.70
12622;DHT22;6376;48.182;-1.644;2024-01-15T04:22:30;8.60;76.70
12622;DHT22;6376;48.182;-1.644;2024-01-15T04:24:56;8.70;77.50
12622;DHT22;6376;48.182;-1.644;2024-01-15T04:27:22;8.60;76.60
12622;DHT22;6376;48.182;-1.644;2024-01-15T04:29:47;8.60;76.70
12622;DHT22;6376;48.182;-1.644;2024-01-15T04:32:13;8.60;76.60
12622;DHT22;6376;48.182;-1.644;2024-01-15T04:34:38;8.70;76.60
12622;DHT22;6376;48.182;-1.644;2024-01-15T04:37:05;8.60;76.60
12622;DHT22;6376;48.182;-1.644;2024-01-15T04:39:31;8.60;76.60
12622;DHT22;6376;48.182;-1.644;2024-01-15T04:41:56;8.60;76.60
12622;DHT22;6376;48.182;-1.644;2024-01-15T04:44:22;8.60;76.60
12622;DHT22;6376;48.182;-1.644;2024-01-15T04:46:48;8.60;76.50
12622;DHT22;6376;48.182;-1.644;2024-01-15T04:49:13;8.60;76.60
12622;DHT22;6376;48.182;-1.644;2024-01-15T04:51:39;8.60;76.60
12622;DHT22;6376;48.182;-1.644;2024-01-15T04:54:04;8.60;76.60
12622;DHT22;6376;48.182;-1.644;2024-01-15T04:56:30;8.60;76.60
12622;DHT22;6376;48.182;-1.644;2024-01-15T04:58:56;8.60;77.30
12622;DHT22;6376;48.182;-1.644;2024-01-15T05:01:21;8.60;76.70
12622;DHT22;6376;48.182;-1.644;2024-01-15T05:03:47;8.60;76.60
12622;DHT22;6376;48.182;-1.644;2024-01-15T05:06:13;8.60;76.60
12622;DHT22;6376;48.182;-1.644;2024-01-15T05:08:38;8.60;76.60
12622;DHT22;6376;48.182;-1.644;2024-01-15T05:11:04;8.60;76.70
12622;DHT22;6376;48.182;-1.644;2024-01-15T05:13:29;9.00;76.90
12622;DHT22;6376;48.182;-1.644;2024-01-15T05:15:55;8.60;76.60
12622;DHT22;6376;48.182;-1.644;2024-01-15T05:18:20;8.60;76.70
12622;DHT22;6376;48.182;-1.644;2024-01-15T05:20:46;8.60;76.60
12622;DHT22;6376;48.182;-1.644;2024-01-15T05:23:12;8.60;76.60
12622;DHT22;6376;48.182;-1.644;2024-01-15T05:25:37;8.60;76.70
12622;DHT22;6376;48.182;-1.644;2024-01-15T05:28:04;8.60;76.60
12622;DHT22;6376;48.182;-1.644;2024-01-15T05:30:29;8.60;76.90
12622;DHT22;6376;48.182;-1.644;2024-01-15T05:32:55;8.60;77.40
12622;DHT22;6376;48.182;-1.644;2024-01-15T05:35:21;8.60;76.90
12622;DHT22;6376;48.182;-1.644;2024-01-15T05:37:46;8.60;76.70
12622;DHT22;6376;48.182;-1.644;2024-01-15T05:40:13;8.60;76.90
12622;DHT22;6376;48.182;-1.644;2024-01-15T05:42:39;8.60;76.70
12622;DHT22;6376;48.182;-1.644;2024-01-15T05:45:05;8.60;76.90
12622;DHT22;6376;48.182;-1.644;2024-01-15T05:47:31;8.60;76.80
12622;DHT22;6376;48.182;-1.644;2024-01-15T05:49:57;8.60;76.70
12622;DHT22;6376;48.182;-1.644;2024-01-15T05:52:23;8.60;76.90
12622;DHT22;6376;48.182;-1.644;2024-01-15T05:54:49;8.60;76.90
12622;DHT22;6376;48.182;-1.644;2024-01-15T05:57:15;8.60;76.90
12622;DHT22;6376;48.182;-1.644;2024-01-15T05:59:42;8.60;76.90
12622;DHT22;6376;48.182;-1.644;2024-01-15T06:02:08;8.60;77.00
12622;DHT22;6376;48.182;-1.644;2024-01-15T06:04:33;8.60;76.90
12622;DHT22;6376;48.182;-1.644;2024-01-15T06:06:59;8.60;76.90
12622;DHT22;6376;48.182;-1.644;2024-01-15T06:09:25;8.60;76.90
12622;DHT22;6376;48.182;-1.644;2024-01-15T06:11:50;8.60;76.80
12622;DHT22;6376;48.182;-1.644;2024-01-15T06:14:16;8.60;76.70
12622;DHT22;6376;48.182;-1.644;2024-01-15T06:16:41;8.60;76.80
12622;DHT22;6376;48.182;-1.644;2024-01-15T06:19:07;8.60;76.80
12622;DHT22;6376;48.182;-1.644;2024-01-15T06:21:33;8.60;76.80
12622;DHT22;6376;48.182;-1.644;2024-01-15T06:23:59;8.60;76.80
12622;DHT22;6376;48.182;-1.644;2024-01-15T06:26:24;8.60;76.90
12622;DHT22;6376;48.182;-1.644;2024-01-15T06:28:50;8.60;76.70
12622;DHT22;6376;48.182;-1.644;2024-01-15T06:31:16;8.60;76.90
12622;DHT22;6376;48.182;-1.644;2024-01-15T06:33:42;8.60;76.80
12622;DHT22;6376;48.182;-1.644;2024-01-15T06:36:08;8.60;76.90
12622;DHT22;6376;48.182;-1.644;2024-01-15T06:38:33;8.60;76.90
12622;DHT22;6376;48.182;-1.644;2024-01-15T06:41:01;8.60;76.90
12622;DHT22;6376;48.182;-1.644;2024-01-15T06:43:26;8.60;76.90
12622;DHT22;6376;48.182;-1.644;2024-01-15T06:45:52;8.60;76.90
12622;DHT22;6376;48.182;-1.644;2024-01-15T06:48:17;8.60;76.90
12622;DHT22;6376;48.182;-1.644;2024-01-15T06:50:43;8.60;76.90
12622;DHT22;6376;48.182;-1.644;2024-01-15T06:53:09;8.60;76.90
12622;DHT22;6376;48.182;-1.644;2024-01-15T06:55:34;8.60;76.90
12622;DHT22;6376;48.182;-1.644;2024-01-15T06:58:00;8.60;77.00
12622;DHT22;6376;48.182;-1.644;2024-01-15T07:00:26;8.60;77.00
12622;DHT22;6376;48.182;-1.644;2024-01-15T07:02:53;9.00;77.20
12622;DHT22;6376;48.182;-1.644;2024-01-15T07:05:20;8.60;77.00
12622;DHT22;6376;48.182;-1.644;2024-01-15T07:07:46;8.60;77.00
12622;DHT22;6376;48.182;-1.644;2024-01-15T07:10:13;8.60;77.00
12622;DHT22;6376;48.182;-1.644;2024-01-15T07:12:38;8.60;77.00
12622;DHT22;6376;48.182;-1.644;2024-01-15T07:15:04;8.60;77.00
12622;DHT22;6376;48.182;-1.644;2024-01-15T07:17:33;8.60;77.20
12622;DHT22;6376;48.182;-1.644;2024-01-15T07:19:59;8.60;77.00
12622;DHT22;6376;48.182;-1.644;2024-01-15T07:22:24;8.60;77.10
12622;DHT22;6376;48.182;-1.644;2024-01-15T07:24:50;8.60;77.10
12622;DHT22;6376;48.182;-1.644;2024-01-15T07:27:15;8.60;77.00
12622;DHT22;6376;48.182;-1.644;2024-01-15T07:29:41;8.60;77.20
12622;DHT22;6376;48.182;-1.644;2024-01-15T07:32:08;8.60;77.10
12622;DHT22;6376;48.182;-1.644;2024-01-15T07:34:34;8.70;77.20
12622;DHT22;6376;48.182;-1.644;2024-01-15T07:36:59;8.60;77.20
12622;DHT22;6376;48.182;-1.644;2024-01-15T07:39:25;8.60;77.20
12622;DHT22;6376;48.182;-1.644;2024-01-15T07:41:51;8.60;77.10
12622;DHT22;6376;48.182;-1.644;2024-01-15T07:44:17;8.60;77.20
12622;DHT22;6376;48.182;-1.644;2024-01-15T07:46:47;8.60;77.20
12622;DHT22;6376;48.182;-1.644;2024-01-15T07:49:12;8.60;77.20
12622;DHT22;6376;48.182;-1.644;2024-01-15T07:51:38;8.60;77.20
12622;DHT22;6376;48.182;-1.644;2024-01-15T07:54:06;8.60;77.20
12622;DHT22;6376;48.182;-1.644;2024-01-15T07:56:31;8.60;77.30
12622;DHT22;6376;48.182;-1.644;2024-01-15T07:58:57;8.60;77.30
12622;DHT22;6376;48.182;-1.644;2024-01-15T08:01:23;8.60;77.20
12622;DHT22;6376;48.182;-1.644;2024-01-15T08:03:48;8.60;77.10
12622;DHT22;6376;48.182;-1.644;2024-01-15T08:06:14;8.60;77.20
12622;DHT22;6376;48.182;-1.644;2024-01-15T08:08:40;8.60;77.10
12622;DHT22;6376;48.182;-1.644;2024-01-15T08:11:05;8.60;77.20
12622;DHT22;6376;48.182;-1.644;2024-01-15T08:13:31;8.60;77.20
12622;DHT22;6376;48.182;-1.644;2024-01-15T08:15:57;8.60;77.20
12622;DHT22;6376;48.182;-1.644;2024-01-15T08:18:22;8.60;77.20
12622;DHT22;6376;48.182;-1.644;2024-01-15T08:20:48;8.60;77.20
12622;DHT22;6376;48.182;-1.644;2024-01-15T08:23:14;8.70;77.10
12622;DHT22;6376;48.182;-1.644;2024-01-15T08:25:40;8.60;77.20
12622;DHT22;6376;48.182;-1.644;2024-01-15T08:28:06;8.60;77.20
12622;DHT22;6376;48.182;-1.644;2024-01-15T08:30:31;8.60;77.20
12622;DHT22;6376;48.182;-1.644;2024-01-15T08:32:57;8.60;77.10
12622;DHT22;6376;48.182;-1.644;2024-01-15T08:35:24;8.70;77.20
12622;DHT22;6376;48.182;-1.644;2024-01-15T08:37:50;8.70;77.20
12622;DHT22;6376;48.182;-1.644;2024-01-15T08:40:16;8.70;77.20
12622;DHT22;6376;48.182;-1.644;2024-01-15T08:42:42;8.70;77.20
12622;DHT22;6376;48.182;-1.644;2024-01-15T08:45:09;8.70;77.20
12622;DHT22;6376;48.182;-1.644;2024-01-15T08:47:35;8.70;77.20
12622;DHT22;6376;48.182;-1.644;2024-01-15T08:50:02;8.70;77.20
12622;DHT22;6376;48.182;-1.644;2024-01-15T08:52:28;8.60;77.30
12622;DHT22;6376;48.182;-1.644;2024-01-15T08:54:55;8.70;77.30
12622;DHT22;6376;48.182;-1.644;2024-01-15T08:57:21;8.70;77.20
12622;DHT22;6376;48.182;-1.644;2024-01-15T08:59:47;8.70;77.10
12622;DHT22;6376;48.182;-1.644;2024-01-15T09:02:13;8.70;77.10
12622;DHT22;6376;48.182;-1.644;2024-01-15T09:04:39;8.70;77.00
12622;DHT22;6376;48.182;-1.644;2024-01-15T09:07:05;8.70;77.20
12622;DHT22;6376;48.182;-1.644;2024-01-15T09:09:30;8.70;77.20
12622;DHT22;6376;48.182;-1.644;2024-01-15T09:11:56;8.70;77.10
12622;DHT22;6376;48.182;-1.644;2024-01-15T09:14:22;8.70;77.10
12622;DHT22;6376;48.182;-1.644;2024-01-15T09:16:49;8.80;76.90
12622;DHT22;6376;48.182;-1.644;2024-01-15T09:19:15;8.80;76.80
12622;DHT22;6376;48.182;-1.644;2024-01-15T09:21:43;8.90;76.70
12622;DHT22;6376;48.182;-1.644;2024-01-15T09:24:09;8.90;76.70
12622;DHT22;6376;48.182;-1.644;2024-01-15T09:26:35;8.90;76.60
12622;DHT22;6376;48.182;-1.644;2024-01-15T09:29:01;9.00;76.60
12622;DHT22;6376;48.182;-1.644;2024-01-15T09:31:26;9.00;76.50
12622;DHT22;6376;48.182;-1.644;2024-01-15T09:33:52;9.10;76.30
12622;DHT22;6376;48.182;-1.644;2024-01-15T09:36:21;9.20;76.00
12622;DHT22;6376;48.182;-1.644;2024-01-15T09:38:48;9.30;75.60
12622;DHT22;6376;48.182;-1.644;2024-01-15T09:41:14;9.40;75.10
12622;DHT22;6376;48.182;-1.644;2024-01-15T09:43:40;9.30;75.00
12622;DHT22;6376;48.182;-1.644;2024-01-15T09:46:06;9.30;75.30
12622;DHT22;6376;48.182;-1.644;2024-01-15T09:48:31;9.20;75.50
12622;DHT22;6376;48.182;-1.644;2024-01-15T09:51:01;9.20;75.50
12622;DHT22;6376;48.182;-1.644;2024-01-15T09:53:27;9.20;75.50
12622;DHT22;6376;48.182;-1.644;2024-01-15T09:55:53;9.20;75.50
12622;DHT22;6376;48.182;-1.644;2024-01-15T09:58:19;9.20;75.50
12622;DHT22;6376;48.182;-1.644;2024-01-15T10:00:47;9.20;75.30
12622;DHT22;6376;48.182;-1.644;2024-01-15T10:03:15;9.10;75.50
12622;DHT22;6376;48.182;-1.644;2024-01-15T10:05:41;9.10;75.80
12622;DHT22;6376;48.182;-1.644;2024-01-15T10:08:07;9.10;75.90
12622;DHT22;6376;48.182;-1.644;2024-01-15T10:10:36;9.10;75.90
12622;DHT22;6376;48.182;-1.644;2024-01-15T10:13:01;9.20;76.00
12622;DHT22;6376;48.182;-1.644;2024-01-15T10:15:29;9.10;76.10
12622;DHT22;6376;48.182;-1.644;2024-01-15T10:17:55;9.10;75.80
12622;DHT22;6376;48.182;-1.644;2024-01-15T10:20:21;9.10;76.20
12622;DHT22;6376;48.182;-1.644;2024-01-15T10:22:50;9.10;76.20
12622;DHT22;6376;48.182;-1.644;2024-01-15T10:25:15;9.10;76.20
12622;DHT22;6376;48.182;-1.644;2024-01-15T10:27:41;9.10;76.30
12622;DHT22;6376;48.182;-1.644;2024-01-15T10:30:08;9.10;76.30
12622;DHT22;6376;48.182;-1.644;2024-01-15T10:32:34;9.10;76.40
12622;DHT22;6376;48.182;-1.644;2024-01-15T10:35:00;9.10;76.20
12622;DHT22;6376;48.182;-1.644;2024-01-15T10:37:25;9.10;76.30
12622;DHT22;6376;48.182;-1.644;2024-01-15T10:39:52;9.10;76.30
12622;DHT22;6376;48.182;-1.644;2024-01-15T10:42:18;9.10;76.20
12622;DHT22;6376;48.182;-1.644;2024-01-15T10:44:44;9.10;76.30
12622;DHT22;6376;48.182;-1.644;2024-01-15T10:47:12;9.10;76.40
12622;DHT22;6376;48.182;-1.644;2024-01-15T10:49:38;9.10;76.30
12622;DHT22;6376;48.182;-1.644;2024-01-15T10:52:04;9.10;76.30
12622;DHT22;6376;48.182;-1.644;2024-01-15T10:54:30;9.10;76.30
12622;DHT22;6376;48.182;-1.644;2024-01-15T10:56:56;9.10;76.20
12622;DHT22;6376;48.182;-1.644;2024-01-15T10:59:24;9.10;76.00
12622;DHT22;6376;48.182;-1.644;2024-01-15T11:01:52;9.10;76.20
12622;DHT22;6376;48.182;-1.644;2024-01-15T11:04:20;9.10;76.10
12622;DHT22;6376;48.182;-1.644;2024-01-15T11:06:50;9.10;76.10
12622;DHT22;6376;48.182;-1.644;2024-01-15T11:09:15;9.10;76.10
12622;DHT22;6376;48.182;-1.644;2024-01-15T11:11:46;9.10;76.20
12622;DHT22;6376;48.182;-1.644;2024-01-15T11:14:40;9.10;76.10
12622;DHT22;6376;48.182;-1.644;2024-01-15T11:17:10;9.10;76.20
12622;DHT22;6376;48.182;-1.644;2024-01-15T11:19:37;9.10;76.20
12622;DHT22;6376;48.182;-1.644;2024-01-15T11:22:10;9.10;76.20
12622;DHT22;6376;48.182;-1.644;2024-01-15T11:24:40;9.10;76.10
12622;DHT22;6376;48.182;-1.644;2024-01-15T11:27:08;9.10;76.10
12622;DHT22;6376;48.182;-1.644;2024-01-15T11:29:35;9.20;76.10
12622;DHT22;6376;48.182;-1.644;2024-01-15T11:34:50;9.20;75.90
12622;DHT22;6376;48.182;-1.644;2024-01-15T11:37:17;9.20;75.90
12622;DHT22;6376;48.182;-1.644;2024-01-15T11:39:43;9.20;76.10
12622;DHT22;6376;48.182;-1.644;2024-01-15T11:42:13;9.20;75.80
12622;DHT22;6376;48.182;-1.644;2024-01-15T11:44:39;9.20;75.60
12622;DHT22;6376;48.182;-1.644;2024-01-15T11:47:07;9.20;75.60
12622;DHT22;6376;48.182;-1.644;2024-01-15T11:52:22;9.20;75.70
12622;DHT22;6376;48.182;-1.644;2024-01-15T11:57:47;9.20;76.20
12622;DHT22;6376;48.182;-1.644;2024-01-15T12:00:15;9.20;76.00
12622;DHT22;6376;48.182;-1.644;2024-01-15T12:02:45;9.20;76.00
12622;DHT22;6376;48.182;-1.644;2024-01-15T12:05:18;9.20;75.90
12622;DHT22;6376;48.182;-1.644;2024-01-15T12:07:46;9.20;75.70
12622;DHT22;6376;48.182;-1.644;2024-01-15T12:10:16;9.30;75.80
12622;DHT22;6376;48.182;-1.644;2024-01-15T12:15:28;9.30;76.10
12622;DHT22;6376;48.182;-1.644;2024-01-15T12:17:56;9.30;75.90
12622;DHT22;6376;48.182;-1.644;2024-01-15T12:20:24;9.30;75.80
12622;DHT22;6376;48.182;-1.644;2024-01-15T12:22:49;9.30;75.80
12622;DHT22;6376;48.182;-1.644;2024-01-15T12:25:15;9.30;75.70
12622;DHT22;6376;48.182;-1.644;2024-01-15T12:27:41;9.30;75.70
12622;DHT22;6376;48.182;-1.644;2024-01-15T12:30:09;9.30;75.70
12622;DHT22;6376;48.182;-1.644;2024-01-15T12:32:35;9.30;75.80
12622;DHT22;6376;48.182;-1.644;2024-01-15T12:35:01;9.30;75.60
12622;DHT22;6376;48.182;-1.644;2024-01-15T12:37:27;9.30;75.60
12622;DHT22;6376;48.182;-1.644;2024-01-15T12:39:52;9.30;75.60
12622;DHT22;6376;48.182;-1.644;2024-01-15T12:42:21;9.30;75.60
12622;DHT22;6376;48.182;-1.644;2024-01-15T12:44:46;9.30;75.60
12622;DHT22;6376;48.182;-1.644;2024-01-15T12:47:12;9.30;75.70
12622;DHT22;6376;48.182;-1.644;2024-01-15T12:49:39;9.30;75.80
12622;DHT22;6376;48.182;-1.644;2024-01-15T12:52:08;9.30;75.80
12622;DHT22;6376;48.182;-1.644;2024-01-15T12:54:34;9.30;75.80
12622;DHT22;6376;48.182;-1.644;2024-01-15T12:57:00;9.20;75.70
12622;DHT22;6376;48.182;-1.644;2024-01-15T12:59:25;9.30;75.80
12622;DHT22;6376;48.182;-1.644;2024-01-15T13:01:51;9.30;75.80
12622;DHT22;6376;48.182;-1.644;2024-01-15T13:04:24;9.30;75.80
12622;DHT22;6376;48.182;-1.644;2024-01-15T13:06:50;9.30;75.80
12622;DHT22;6376;48.182;-1.644;2024-01-15T13:09:17;9.30;75.80
12622;DHT22;6376;48.182;-1.644;2024-01-15T13:11:46;9.30;75.70
12622;DHT22;6376;48.182;-1.644;2024-01-15T13:14:12;9.30;75.60
12622;DHT22;6376;48.182;-1.644;2024-01-15T13:16:41;9.30;75.60
12622;DHT22;6376;48.182;-1.644;2024-01-15T13:19:10;9.30;75.50
12622;DHT22;6376;48.182;-1.644;2024-01-15T13:21:42;9.30;75.60
12622;DHT22;6376;48.182;-1.644;2024-01-15T13:24:08;9.30;75.50
12622;DHT22;6376;48.182;-1.644;2024-01-15T13:26:34;9.30;75.60
12622;DHT22;6376;48.182;-1.644;2024-01-15T13:29:02;9.30;75.60
12622;DHT22;6376;48.182;-1.644;2024-01-15T13:31:29;9.30;75.60
12622;DHT22;6376;48.182;-1.644;2024-01-15T13:33:55;9.30;75.50
12622;DHT22;6376;48.182;-1.644;2024-01-15T13:36:22;9.30;75.50
12622;DHT22;6376;48.182;-1.644;2024-01-15T13:38:51;9.30;75.50
12622;DHT22;6376;48.182;-1.644;2024-01-15T13:41:18;9.30;75.50
12622;DHT22;6376;48.182;-1.644;2024-01-15T13:43:47;9.30;75.50
12622;DHT22;6376;48.182;-1.644;2024-01-15T13:46:13;9.30;75.50
12622;DHT22;6376;48.182;-1.644;2024-01-15T13:48:38;9.30;75.50
12622;DHT22;6376;48.182;-1.644;2024-01-15T13:51:04;9.30;75.50
12622;DHT22;6376;48.182;-1.644;2024-01-15T13:53:30;9.30;75.50
12622;DHT22;6376;48.182;-1.644;2024-01-15T13:55:57;9.30;75.50
12622;DHT22;6376;48.182;-1.644;2024-01-15T13:58:23;9.30;75.50
12622;DHT22;6376;48.182;-1.644;2024-01-15T14:00:51;9.30;75.50
12622;DHT22;6376;48.182;-1.644;2024-01-15T14:03:16;9.30;75.40
12622;DHT22;6376;48.182;-1.644;2024-01-15T14:05:42;9.30;75.40
12622;DHT22;6376;48.182;-1.644;2024-01-15T14:08:08;9.30;75.50
12622;DHT22;6376;48.182;-1.644;2024-01-15T14:10:34;9.30;75.50
12622;DHT22;6376;48.182;-1.644;2024-01-15T14:12:59;9.30;75.50
12622;DHT22;6376;48.182;-1.644;2024-01-15T14:15:26;9.30;75.30
12622;DHT22;6376;48.182;-1.644;2024-01-15T14:17:52;9.20;75.40
12622;DHT22;6376;48.182;-1.644;2024-01-15T14:20:18;9.20;75.30
12622;DHT22;6376;48.182;-1.644;2024-01-15T14:22:44;9.30;75.40
12622;DHT22;6376;48.182;-1.644;2024-01-15T14:25:10;9.30;75.40
12622;DHT22;6376;48.182;-1.644;2024-01-15T14:27:35;9.30;75.30
12622;DHT22;6376;48.182;-1.644;2024-01-15T14:30:02;9.30;76.10
12622;DHT22;6376;48.182;-1.644;2024-01-15T14:32:28;9.30;75.40
12622;DHT22;6376;48.182;-1.644;2024-01-15T14:34:54;9.20;75.30
12622;DHT22;6376;48.182;-1.644;2024-01-15T14:37:22;9.20;75.30
12622;DHT22;6376;48.182;-1.644;2024-01-15T14:39:47;9.20;75.30
12622;DHT22;6376;48.182;-1.644;2024-01-15T14:42:13;9.20;75.30
12622;DHT22;6376;48.182;-1.644;2024-01-15T14:44:38;9.20;75.30
12622;DHT22;6376;48.182;-1.644;2024-01-15T14:47:06;9.20;75.40
12622;DHT22;6376;48.182;-1.644;2024-01-15T14:49:33;9.20;75.40
12622;DHT22;6376;48.182;-1.644;2024-01-15T14:51:59;9.20;75.30
12622;DHT22;6376;48.182;-1.644;2024-01-15T14:54:24;9.20;75.20
12622;DHT22;6376;48.182;-1.644;2024-01-15T14:56:51;9.20;75.20
12622;DHT22;6376;48.182;-1.644;2024-01-15T14:59:17;9.20;75.30
12622;DHT22;6376;48.182;-1.644;2024-01-15T15:01:43;9.20;75.20
12622;DHT22;6376;48.182;-1.644;2024-01-15T15:04:08;9.20;75.20
12622;DHT22;6376;48.182;-1.644;2024-01-15T15:06:36;9.20;75.20
12622;DHT22;6376;48.182;-1.644;2024-01-15T15:09:02;9.20;75.20
12622;DHT22;6376;48.182;-1.644;2024-01-15T15:11:34;9.10;75.20
12622;DHT22;6376;48.182;-1.644;2024-01-15T15:14:00;9.20;75.20
12622;DHT22;6376;48.182;-1.644;2024-01-15T15:16:26;9.20;75.20
12622;DHT22;6376;48.182;-1.644;2024-01-15T15:18:52;9.20;75.20
12622;DHT22;6376;48.182;-1.644;2024-01-15T15:21:18;9.20;75.20
12622;DHT22;6376;48.182;-1.644;2024-01-15T15:23:44;9.20;75.20
12622;DHT22;6376;48.182;-1.644;2024-01-15T15:26:09;9.20;75.20
12622;DHT22;6376;48.182;-1.644;2024-01-15T15:28:35;9.20;75.20
12622;DHT22;6376;48.182;-1.644;2024-01-15T15:31:02;9.20;75.20
12622;DHT22;6376;48.182;-1.644;2024-01-15T15:33:28;9.20;75.30
12622;DHT22;6376;48.182;-1.644;2024-01-15T15:35:54;9.10;75.10
12622;DHT22;6376;48.182;-1.644;2024-01-15T15:38:20;9.30;75.30
12622;DHT22;6376;48.182;-1.644;2024-01-15T15:40:45;9.20;75.10
12622;DHT22;6376;48.182;-1.644;2024-01-15T15:43:11;9.10;74.90
12622;DHT22;6376;48.182;-1.644;2024-01-15T15:45:36;9.10;74.90
12622;DHT22;6376;48.182;-1.644;2024-01-15T15:48:02;9.10;75.00
12622;DHT22;6376;48.182;-1.644;2024-01-15T15:50:28;9.10;74.80